Time;durP1;ratioP1;P1;durP2;ratioP2;P2;SDS_P1;SDS_P2;PMS_P1;PMS_P2;Temp;Humidity;BMP_temperature;BMP_pressure;BME280_temperature;BME280_humidity;BME280_pressure;Samples;Min_cycle;Max_cycle;Signal;HPM_P1;HPM_P2
2021/12/27 08:09:35;;;;;;;91.73;30.73;;;0.30;99.90;;;;;;5153111;27;1310511;-60
2021/12/27 08:12:01;;;;;;;102.10;34.45;;;0.40;99.90;;;;;;5174065;27;20047;-59
2021/12/27 08:14:27;;;;;;;86.65;35.63;;;0.40;99.90;;;;;;5155826;27;20043;-60
2021/12/27 08:16:52;;;;;;;96.78;35.17;;;0.40;99.90;;;;;;5154969;27;20089;-60
2021/12/27 08:19:18;;;;;;;87.03;34.50;;;0.40;99.90;;;;;;5173043;27;20045;-60
2021/12/27 08:21:44;;;;;;;98.35;34.45;;;0.40;99.90;;;;;;5155860;27;20093;-59
2021/12/27 08:24:10;;;;;;;100.18;34.60;;;0.40;99.90;;;;;;5154905;27;20050;-60
2021/12/27 08:26:37;;;;;;;95.43;32.33;;;0.50;99.90;;;;;;5173203;27;20052;-60
2021/12/27 08:29:06;;;;;;;89.57;30.90;;;0.50;99.90;;;;;;5173013;27;20046;-59
2021/12/27 08:31:31;;;;;;;94.13;31.70;;;0.50;99.90;;;;;;5173111;27;20107;-60
2021/12/27 08:33:57;;;;;;;89.53;32.03;;;0.70;99.90;;;;;;5154676;27;20078;-60
2021/12/27 08:36:23;;;;;;;98.75;33.15;;;0.60;99.90;;;;;;5138163;27;20054;-60
2021/12/27 08:38:50;;;;;;;80.38;30.38;;;0.60;99.90;;;;;;5173462;27;20125;-61
2021/12/27 08:41:18;;;;;;;91.60;31.00;;;0.60;99.90;;;;;;5172958;27;20046;-60
2021/12/27 08:43:44;;;;;;;76.40;30.15;;;0.60;99.90;;;;;;5173188;27;20045;-60
2021/12/27 08:46:10;;;;;;;;;;;0.70;99.90;;;;;;5173299;27;20045;-61
2021/12/27 08:48:36;;;;;;;83.95;29.70;;;0.60;99.90;;;;;;5153774;27;19918;-60
2021/12/27 08:51:02;;;;;;;;;;;0.60;99.90;;;;;;5155066;27;20042;-60
2021/12/27 08:53:28;;;;;;;74.20;29.20;;;0.70;99.90;;;;;;5172750;27;19964;-61
2021/12/27 08:55:54;;;;;;;92.93;31.10;;;0.70;99.90;;;;;;5137331;27;20474;-60
2021/12/27 08:58:20;;;;;;;84.50;30.95;;;0.70;99.90;;;;;;5172509;27;20045;-61
2021/12/27 09:00:45;;;;;;;86.70;30.35;;;0.80;99.90;;;;;;5172563;27;20473;-60
2021/12/27 09:03:11;;;;;;;72.53;28.05;;;0.70;99.90;;;;;;5154168;27;20042;-60
2021/12/27 09:05:41;;;;;;;83.63;29.80;;;0.80;99.90;;;;;;5154416;27;20049;-61
2021/12/27 09:08:07;;;;;;;92.22;30.10;;;0.80;99.90;;;;;;5172398;27;20045;-60
2021/12/27 09:10:33;;;;;;;79.45;29.52;;;0.80;99.90;;;;;;5172818;27;20133;-60
2021/12/27 09:13:00;;;;;;;;;;;0.90;99.90;;;;;;5172762;27;20050;-60
2021/12/27 09:15:27;;;;;;;73.63;27.98;;;0.90;99.90;;;;;;5172353;27;19919;-60
2021/12/27 09:17:53;;;;;;;74.10;27.23;;;0.90;99.90;;;;;;5172610;27;20038;-60
2021/12/27 09:20:18;;;;;;;76.38;28.27;;;0.90;99.90;;;;;;5162200;27;20462;-60
2021/12/27 09:22:44;;;;;;;62.28;26.00;;;0.90;99.90;;;;;;5139661;27;20046;-60
2021/12/27 09:25:10;;;;;;;62.60;26.60;;;0.90;99.90;;;;;;5158199;27;20465;-60
2021/12/27 09:27:36;;;;;;;58.47;25.70;;;1.00;99.90;;;;;;5139664;27;20107;-61
2021/12/27 09:30:03;;;;;;;57.85;25.45;;;1.00;99.90;;;;;;5158531;27;20389;-60
2021/12/27 09:32:29;;;;;;;61.25;26.60;;;1.00;99.90;;;;;;5139740;27;20047;-60
2021/12/27 09:34:55;;;;;;;55.17;23.63;;;1.00;99.90;;;;;;5139539;27;20046;-61
2021/12/27 09:37:21;;;;;;;60.40;25.10;;;1.00;99.90;;;;;;5139498;27;20081;-61
2021/12/27 09:39:53;;;;;;;60.38;24.73;;;1.00;99.90;;;;;;5157941;27;20046;-61
2021/12/27 09:42:20;;;;;;;58.95;24.63;;;1.00;99.90;;;;;;5157874;27;20186;-61
2021/12/27 09:44:46;;;;;;;55.53;24.42;;;1.00;99.90;;;;;;5157703;27;20082;-61
2021/12/27 09:47:12;;;;;;;56.78;24.83;;;1.00;99.90;;;;;;5139399;27;20046;-61
2021/12/27 09:49:37;;;;;;;58.90;24.63;;;1.00;99.90;;;;;;5157640;27;20051;-60
2021/12/27 09:52:04;;;;;;;66.28;25.98;;;1.10;99.90;;;;;;5157681;27;20382;-61
2021/12/27 09:54:29;;;;;;;;;;;1.10;99.90;;;;;;5139360;27;20122;-61
2021/12/27 09:56:56;;;;;;;61.28;25.25;;;1.00;99.90;;;;;;5157502;27;19988;-60
2021/12/27 09:59:22;;;;;;;65.85;25.95;;;1.10;99.90;;;;;;5157315;27;20461;-60
2021/12/27 10:01:48;;;;;;;60.20;25.02;;;1.10;99.90;;;;;;5157153;27;20386;-62
2021/12/27 10:04:14;;;;;;;59.55;24.88;;;1.10;99.90;;;;;;5157144;27;20504;-60
2021/12/27 10:06:41;;;;;;;63.85;25.63;;;1.10;99.90;;;;;;5157218;27;20043;-62
2021/12/27 10:09:06;;;;;;;66.10;24.73;;;1.10;99.90;;;;;;5157141;27;20107;-61
2021/12/27 10:11:37;;;;;;;74.45;26.27;;;1.10;99.90;;;;;;5157760;27;20047;-60
2021/12/27 10:14:03;;;;;;;72.82;25.33;;;1.10;99.90;;;;;;5157520;27;20371;-61
2021/12/27 10:16:30;;;;;;;59.50;24.75;;;1.10;99.90;;;;;;5157164;27;20102;-62
2021/12/27 10:19:01;;;;;;;79.97;24.52;;;1.20;99.90;;;;;;5156892;27;20473;-61
2021/12/27 10:21:27;;;;;;;59.88;24.02;;;1.20;99.90;;;;;;5157030;27;20046;-61
2021/12/27 10:24:16;;;;;;;61.55;24.40;;;1.20;99.90;;;;;;5156959;27;20046;-61
2021/12/27 10:26:47;;;;;;;69.53;25.42;;;1.30;99.90;;;;;;5157862;27;20043;-60
2021/12/27 10:29:18;;;;;;;67.32;25.90;;;1.30;99.90;;;;;;5156749;27;20035;-60
2021/12/27 10:32:04;;;;;;;69.47;25.27;;;1.30;99.90;;;;;;5137434;27;20084;-61
2021/12/27 10:34:44;;;;;;;85.45;26.83;;;1.30;99.90;;;;;;5157039;27;20449;-61
2021/12/27 10:37:19;;;;;;;83.18;26.20;;;1.30;99.90;;;;;;5156678;27;20038;-61
2021/12/27 10:39:55;;;;;;;77.97;25.42;;;1.40;99.90;;;;;;5156799;27;20054;-61
2021/12/27 10:42:33;;;;;;;79.22;26.48;;;1.40;99.90;;;;;;5157541;27;20046;-61
2021/12/27 10:45:20;;;;;;;75.30;25.38;;;1.40;99.90;;;;;;5156214;27;20125;-61
2021/12/27 10:47:46;;;;;;;101.78;27.17;;;1.40;99.90;;;;;;5156628;27;20125;-62
2021/12/27 10:50:17;;;;;;;87.90;26.23;;;1.50;99.90;;;;;;5156783;27;20138;-61
2021/12/27 10:52:46;;;;;;;81.80;27.02;;;1.50;99.90;;;;;;5138174;27;20050;-60
2021/12/27 10:55:25;;;;;;;79.38;26.70;;;1.50;99.90;;;;;;5138138;27;20054;-61
2021/12/27 10:57:52;;;;;;;94.25;28.63;;;1.60;99.90;;;;;;5137712;27;20043;-61
2021/12/27 11:00:28;;;;;;;81.82;28.05;;;1.60;99.90;;;;;;5156755;27;20131;-61
2021/12/27 11:02:55;;;;;;;83.10;27.58;;;1.60;99.90;;;;;;5156162;27;20074;-61
2021/12/27 11:05:23;;;;;;;;;;;1.70;99.90;;;;;;5138025;27;20398;-61
2021/12/27 11:07:53;;;;;;;79.00;28.15;;;1.70;99.90;;;;;;5155882;27;19919;-61
2021/12/27 11:10:20;;;;;;;86.00;28.17;;;1.70;99.90;;;;;;5156477;27;20094;-61
2021/12/27 11:12:50;;;;;;;89.22;28.30;;;1.70;99.90;;;;;;5156056;27;20069;-61
2021/12/27 11:15:16;;;;;;;70.78;27.95;;;1.70;99.90;;;;;;5155966;27;20042;-61
2021/12/27 11:17:43;;;;;;;102.70;29.30;;;1.80;99.90;;;;;;5155942;27;20046;-60
2021/12/27 11:20:12;;;;;;;79.78;27.83;;;1.80;99.90;;;;;;5155890;27;20057;-61
2021/12/27 11:22:40;;;;;;;92.50;28.75;;;1.80;99.90;;;;;;5155793;27;20134;-62
2021/12/27 11:25:17;;;;;;;84.15;28.52;;;1.80;99.90;;;;;;5155781;27;20039;-61
2021/12/27 11:27:43;;;;;;;86.32;28.27;;;1.90;99.90;;;;;;5156118;27;20049;-61
2021/12/27 11:30:12;;;;;;;78.13;27.23;;;1.90;99.90;;;;;;5137620;27;20042;-62
2021/12/27 11:33:12;;;;;;;82.57;28.10;;;1.90;99.90;;;;;;5156186;27;20385;-61
2021/12/27 11:35:59;;;;;;;70.25;26.42;;;1.90;99.90;;;;;;5156505;27;20039;-61
2021/12/27 11:38:41;;;;;;;82.15;26.98;;;2.20;99.90;;;;;;5155538;27;20043;-61
2021/12/27 11:41:35;;;;;;;77.82;27.17;;;2.00;99.90;;;;;;5156432;27;20053;-62
2021/12/27 11:44:17;;;;;;;78.22;27.02;;;2.00;99.90;;;;;;5155393;27;20061;-62
2021/12/27 11:46:49;;;;;;;85.60;27.60;;;2.00;99.90;;;;;;5138119;27;20424;-62
2021/12/27 11:49:30;;;;;;;74.32;27.00;;;2.00;99.90;;;;;;5155160;27;20045;-62
2021/12/27 11:52:15;;;;;;;83.25;27.17;;;2.00;99.90;;;;;;5137466;27;20038;-62
2021/12/27 11:54:51;;;;;;;68.90;25.88;;;2.10;99.90;;;;;;5155992;27;20039;-61
2021/12/27 11:57:47;;;;;;;86.35;27.13;;;2.20;99.90;;;;;;5155017;27;20584;-60
2021/12/27 12:00:26;;;;;;;72.80;26.33;;;2.20;99.90;;;;;;5134581;27;20055;-61
2021/12/27 12:03:02;;;;;;;100.68;27.90;;;2.20;99.90;;;;;;5155914;27;20493;-60
2021/12/27 12:05:34;;;;;;;80.83;27.20;;;2.20;99.90;;;;;;5155305;27;20038;-61
2021/12/27 12:08:00;;;;;;;86.38;26.42;;;2.30;99.90;;;;;;5136562;27;20375;-62
2021/12/27 12:10:26;;;;;;;77.97;26.90;;;2.30;99.90;;;;;;5136614;27;20049;-60
2021/12/27 12:13:14;;;;;;;76.70;25.63;;;2.60;99.90;;;;;;5137304;27;20047;-61
2021/12/27 12:15:54;;;;;;;;;;;2.30;99.90;;;;;;5137350;27;20046;-61
2021/12/27 12:18:19;;;;;;;70.53;26.38;;;2.70;99.90;;;;;;5136870;27;20380;-60
2021/12/27 12:20:45;;;;;;;84.22;27.77;;;2.30;99.90;;;;;;5137736;27;20129;-61
2021/12/27 12:23:11;;;;;;;89.40;26.50;;;2.30;99.90;;;;;;5155681;27;20043;-61
2021/12/27 12:25:38;;;;;;;71.18;25.73;;;2.30;99.90;;;;;;5155252;27;20093;-62
2021/12/27 12:28:09;;;;;;;90.90;27.05;;;2.50;99.90;;;;;;5154889;27;20447;-61
2021/12/27 12:30:38;;;;;;;97.82;28.90;;;2.30;99.90;;;;;;5155042;27;20125;-61
2021/12/27 12:33:16;;;;;;;84.65;26.40;;;2.30;99.90;;;;;;5155012;27;20074;-60
2021/12/27 12:35:56;;;;;;;106.00;29.20;;;2.40;99.90;;;;;;5155694;27;20054;-60
2021/12/27 12:38:25;;;;;;;109.28;29.27;;;2.40;99.90;;;;;;5154950;27;20124;-61
2021/12/27 12:41:06;;;;;;;101.00;29.27;;;2.40;99.90;;;;;;5119584;27;20042;-60
2021/12/27 12:43:38;;;;;;;96.40;29.48;;;2.50;99.90;;;;;;5154976;27;20042;-60
2021/12/27 12:46:17;;;;;;;119.63;30.38;;;2.60;99.90;;;;;;5136981;27;20076;-60
2021/12/27 12:48:44;;;;;;;94.38;29.45;;;2.50;99.90;;;;;;5154699;27;20189;-61
2021/12/27 12:51:10;;;;;;;104.38;31.33;;;2.60;99.90;;;;;;5136591;27;20054;-61
2021/12/27 12:53:35;;;;;;;111.07;29.83;;;2.60;99.90;;;;;;5155127;27;20402;-61
2021/12/27 12:56:04;;;;;;;97.00;29.95;;;2.80;99.90;;;;;;5158055;27;20497;-61
2021/12/27 12:58:35;;;;;;;106.80;29.92;;;2.60;99.90;;;;;;5158919;27;20051;-61
2021/12/27 13:01:07;;;;;;;81.95;27.60;;;2.60;99.90;;;;;;5158743;27;20046;-61
2021/12/27 13:03:33;;;;;;;96.15;29.80;;;2.60;99.90;;;;;;5158620;27;20087;-61
2021/12/27 13:05:59;;;;;;;;;;;2.80;99.90;;;;;;5159793;27;20055;-61
2021/12/27 13:08:25;;;;;;;96.55;28.83;;;2.50;99.90;;;;;;5158199;27;19923;-61
2021/12/27 13:10:56;;;;;;;128.30;30.40;;;2.70;99.90;;;;;;5158455;27;20067;-60
2021/12/27 13:13:22;;;;;;;91.90;28.08;;;2.60;99.90;;;;;;5158439;27;20043;-60
2021/12/27 13:15:55;;;;;;;119.60;30.80;;;2.60;99.90;;;;;;5158432;27;20046;-60
2021/12/27 13:18:23;;;;;;;107.57;29.10;;;2.70;99.90;;;;;;5158247;27;20050;-61
2021/12/27 13:20:52;;;;;;;156.93;29.65;;;2.70;99.90;;;;;;5139864;27;20482;-61
2021/12/27 13:23:20;;;;;;;104.30;28.45;;;2.70;99.90;;;;;;5158358;27;20057;-61
2021/12/27 13:25:53;;;;;;;111.00;28.00;;;2.70;99.90;;;;;;5158712;27;20051;-62
2021/12/27 13:28:37;;;;;;;116.82;31.23;;;2.70;99.90;;;;;;5157972;27;20051;-61
2021/12/27 13:31:10;;;;;;;116.93;29.92;;;2.70;99.90;;;;;;5158123;27;20042;-61
2021/12/27 13:33:44;;;;;;;111.60;34.22;;;2.70;99.90;;;;;;5158028;27;20058;-60
2021/12/27 13:36:18;;;;;;;111.57;28.58;;;2.70;99.90;;;;;;5157971;27;20094;-61
2021/12/27 13:38:57;;;;;;;103.13;28.95;;;2.80;99.90;;;;;;5157899;27;20050;-60
2021/12/27 13:41:26;;;;;;;108.68;30.13;;;2.80;99.90;;;;;;5139659;27;20055;-61
2021/12/27 13:43:55;;;;;;;101.28;29.13;;;2.80;99.90;;;;;;5158088;27;20361;-61
2021/12/27 13:46:26;;;;;;;85.15;28.10;;;2.80;99.90;;;;;;5157835;27;20112;-61
2021/12/27 13:48:52;;;;;;;89.60;28.95;;;3.20;99.90;;;;;;5157922;27;20420;-61
2021/12/27 13:51:19;;;;;;;;;;;2.70;99.90;;;;;;5158122;27;20088;-61
2021/12/27 13:54:07;;;;;;;86.40;28.50;;;3.50;99.90;;;;;;5139463;27;19919;-60
2021/12/27 13:56:35;;;;;;;89.28;28.88;;;2.80;99.90;;;;;;5158201;27;20034;-60
2021/12/27 13:59:10;;;;;;;95.13;28.73;;;2.80;99.90;;;;;;5157527;27;20054;-60
2021/12/27 14:01:38;;;;;;;108.05;30.60;;;2.80;99.90;;;;;;5157774;27;20078;-61
2021/12/27 14:04:23;;;;;;;80.68;27.80;;;2.80;99.90;;;;;;5157710;27;20041;-60
2021/12/27 14:06:49;;;;;;;88.32;28.33;;;2.80;99.90;;;;;;5157302;27;20089;-61
2021/12/27 14:09:24;;;;;;;100.05;28.83;;;2.80;99.90;;;;;;5138481;27;20086;-61
2021/12/27 14:11:51;;;;;;;97.45;28.90;;;2.80;99.90;;;;;;5157336;27;20493;-61
2021/12/27 14:14:35;;;;;;;96.57;28.65;;;2.80;99.90;;;;;;5138951;27;20467;-61
2021/12/27 14:17:07;;;;;;;88.38;29.23;;;2.80;99.90;;;;;;5157479;27;20130;-61
2021/12/27 14:19:34;;;;;;;92.13;30.55;;;2.80;99.90;;;;;;5157303;27;20051;-61
2021/12/27 14:22:19;;;;;;;106.85;30.15;;;2.70;99.90;;;;;;5157067;27;20101;-60
2021/12/27 14:24:58;;;;;;;107.35;30.75;;;2.70;99.90;;;;;;5139131;27;20130;-60
2021/12/27 14:27:45;;;;;;;83.55;29.30;;;2.70;99.90;;;;;;5157396;27;20051;-60
2021/12/27 14:30:17;;;;;;;99.72;28.98;;;2.70;99.90;;;;;;5156959;27;20045;-60
2021/12/27 14:33:00;;;;;;;107.65;30.20;;;2.70;99.90;;;;;;5156985;27;20501;-60
2021/12/27 14:35:32;;;;;;;92.03;30.08;;;2.70;99.90;;;;;;5138419;27;20051;-60
2021/12/27 14:38:00;;;;;;;107.55;30.13;;;2.70;99.90;;;;;;5157216;27;20436;-60
2021/12/27 14:40:28;;;;;;;113.63;30.30;;;2.70;99.90;;;;;;5156721;27;20038;-64
2021/12/27 14:42:55;;;;;;;90.47;29.42;;;2.70;99.90;;;;;;5156664;27;20054;-60
2021/12/27 14:45:22;;;;;;;90.05;30.33;;;2.70;99.90;;;;;;5156722;27;20043;-60
2021/12/27 14:47:48;;;;;;;;;;;2.60;99.90;;;;;;5156823;27;20046;-60
2021/12/27 14:50:15;;;;;;;115.78;31.00;;;2.60;99.90;;;;;;5138105;27;20301;-60
2021/12/27 14:52:42;;;;;;;115.95;31.00;;;2.60;99.90;;;;;;5138196;27;20441;-61
2021/12/27 14:55:09;;;;;;;118.75;31.35;;;2.60;99.90;;;;;;5156413;27;20071;-61
2021/12/27 14:57:36;;;;;;;99.13;32.40;;;2.60;99.90;;;;;;5156704;27;20131;-60
2021/12/27 15:00:05;;;;;;;105.32;31.67;;;2.60;99.90;;;;;;5156379;27;20046;-61
2021/12/27 15:02:31;;;;;;;102.97;32.50;;;2.60;99.90;;;;;;5156759;27;20051;-61
2021/12/27 15:04:56;;;;;;;116.20;32.40;;;2.60;99.90;;;;;;5156795;27;20187;-61
2021/12/27 15:07:22;;;;;;;120.00;33.45;;;2.60;99.90;;;;;;5138609;27;20118;-61
2021/12/27 15:09:48;;;;;;;103.82;32.45;;;2.60;99.90;;;;;;5137731;27;20086;-61
2021/12/27 15:12:14;;;;;;;87.50;31.42;;;2.60;99.90;;;;;;5156185;27;20053;-61
2021/12/27 15:14:40;;;;;;;105.35;32.15;;;2.60;99.90;;;;;;5138659;27;20432;-61
2021/12/27 15:17:06;;;;;;;90.88;31.35;;;2.50;99.90;;;;;;5136943;27;20134;-60
2021/12/27 15:19:31;;;;;;;95.50;32.25;;;2.50;99.90;;;;;;5137574;27;20077;-61
2021/12/27 15:21:57;;;;;;;98.50;32.67;;;2.80;99.90;;;;;;5137625;27;20053;-60
2021/12/27 15:24:23;;;;;;;90.72;31.63;;;2.50;99.90;;;;;;5137655;27;20046;-60
2021/12/27 15:26:49;;;;;;;89.85;31.50;;;2.50;99.90;;;;;;5156221;27;20133;-61
2021/12/27 15:29:15;;;;;;;89.15;30.90;;;2.50;99.90;;;;;;5155319;27;20038;-60
2021/12/27 15:31:41;;;;;;;89.85;31.95;;;2.50;99.90;;;;;;5155772;27;20042;-60
2021/12/27 15:34:06;;;;;;;86.85;30.67;;;2.60;99.90;;;;;;5155727;27;20482;-61
2021/12/27 15:36:32;;;;;;;93.68;32.05;;;2.50;99.90;;;;;;5156284;27;20051;-60
2021/12/27 15:38:59;;;;;;;91.50;30.58;;;2.60;99.90;;;;;;5137149;27;20050;-60
2021/12/27 15:41:26;;;;;;;87.80;30.52;;;2.50;99.90;;;;;;5156054;27;20518;-60
2021/12/27 15:43:53;;;;;;;73.90;29.17;;;2.50;99.90;;;;;;5155912;27;20050;-60
2021/12/27 15:46:20;;;;;;;78.18;28.92;;;2.50;99.90;;;;;;5156089;27;20046;-61
2021/12/27 15:48:45;;;;;;;75.72;29.55;;;2.50;99.90;;;;;;5155318;27;20042;-60
2021/12/27 15:51:11;;;;;;;75.88;28.58;;;2.60;99.90;;;;;;5156028;27;20489;-61
2021/12/27 15:53:40;;;;;;;68.68;27.20;;;2.50;99.90;;;;;;5155466;27;20079;-61
2021/12/27 15:56:07;;;;;;;81.38;28.23;;;2.50;99.90;;;;;;5155387;27;20558;-61
2021/12/27 15:58:34;;;;;;;71.03;27.95;;;2.60;99.90;;;;;;5155811;27;20053;-61
2021/12/27 16:01:01;;;;;;;78.18;28.55;;;2.50;99.90;;;;;;5155387;27;20049;-61
2021/12/27 16:03:27;;;;;;;67.60;26.48;;;2.70;99.90;;;;;;5155307;27;20107;-62
2021/12/27 16:05:53;;;;;;;75.05;28.25;;;2.50;99.90;;;;;;5155226;27;20039;-61
2021/12/27 16:08:19;;;;;;;72.75;27.35;;;2.50;99.90;;;;;;5137602;27;20108;-61
2021/12/27 16:10:44;;;;;;;68.10;26.80;;;2.50;99.90;;;;;;5155684;27;20055;-61
2021/12/27 16:13:12;;;;;;;71.13;27.35;;;2.50;99.90;;;;;;5136171;27;20051;-61
2021/12/27 16:15:38;;;;;;;66.68;26.52;;;2.50;99.90;;;;;;5116214;28;20131;-61
2021/12/27 16:18:04;;;;;;;66.28;25.02;;;2.50;99.90;;;;;;5125781;27;20058;-61
2021/12/27 16:20:30;;;;;;;68.47;26.05;;;2.50;99.90;;;;;;5155123;27;20043;-61
2021/12/27 16:22:56;;;;;;;65.40;26.35;;;2.60;99.90;;;;;;5155142;27;20049;-61
2021/12/27 16:25:22;;;;;;;;;;;2.60;99.90;;;;;;5155532;27;20390;-61
2021/12/27 16:27:49;;;;;;;62.13;24.63;;;2.80;99.90;;;;;;5136261;27;19919;-60
2021/12/27 16:30:17;;;;;;;54.25;24.17;;;2.70;99.90;;;;;;5147843;27;20114;-60
2021/12/27 16:32:44;;;;;;;58.45;24.88;;;2.90;99.90;;;;;;5138489;27;20047;-60
2021/12/27 16:35:10;;;;;;;51.03;24.45;;;2.60;99.90;;;;;;5139032;27;20058;-61
2021/12/27 16:37:36;;;;;;;48.08;23.15;;;2.70;99.90;;;;;;5138385;27;20043;-61
2021/12/27 16:40:12;;;;;;;51.70;23.00;;;2.90;99.90;;;;;;5120132;27;20122;-61
2021/12/27 16:42:49;;;;;;;53.38;23.23;;;2.60;99.90;;;;;;5121003;27;20051;-61
2021/12/27 16:45:15;;;;;;;51.10;23.15;;;2.60;99.90;;;;;;5120537;27;20047;-61
2021/12/27 16:47:41;;;;;;;;;;;2.70;99.90;;;;;;5139373;27;20070;-61
2021/12/27 16:50:09;;;;;;;50.05;22.40;;;2.60;99.90;;;;;;5138066;27;20367;-61
2021/12/27 16:52:35;;;;;;;43.38;19.98;;;2.60;99.90;;;;;;5138578;27;20047;-60
2021/12/27 16:55:01;;;;;;;48.80;19.48;;;;;;;;;;5120806;27;20121;-61
2021/12/27 16:57:27;;;;;;;49.60;20.30;;;;;;;;;;5138335;27;20089;-61
2021/12/27 16:59:53;;;;;;;46.17;18.48;;;;;;;;;;5119979;27;20096;-61
2021/12/27 17:02:19;;;;;;;;;;;2.60;99.90;;;;;;5138254;27;20055;-62
2021/12/27 17:04:45;;;;;;;39.13;17.70;;;;;;;;;;5137922;27;20319;-61
2021/12/27 17:07:12;;;;;;;46.00;19.50;;;;;;;;;;5150955;27;20148;-61
2021/12/27 17:09:38;;;;;;;41.72;19.10;;;;;;;;;;5158362;27;20118;-62
2021/12/27 17:14:26;;;;;;;45.45;19.52;;;;;;;;;;5091613;27;20900;-62
2021/12/27 17:16:52;;;;;;;40.47;18.75;;;;;;;;;;5090185;28;20083;-61
2021/12/27 17:19:18;;;;;;;36.92;16.52;;;;;;;;;;5091143;28;20055;-61
2021/12/27 17:21:44;;;;;;;36.00;16.98;;;;;;;;;;5091030;28;20059;-60
2021/12/27 17:24:11;;;;;;;41.03;18.08;;;;;;;;;;5091502;28;20040;-60
2021/12/27 17:26:38;;;;;;;40.92;19.02;;;;;;;;;;5090913;28;20439;-59
2021/12/27 17:29:05;;;;;;;40.63;17.55;;;;;;;;;;5090821;28;20051;-61
2021/12/27 17:32:10;;;;;;;38.88;17.30;;;;;;;;;;5091507;28;20419;-61
2021/12/27 17:34:38;;;;;;;38.13;17.45;;;;;;;;;;5090989;28;20119;-61
2021/12/27 17:37:08;;;;;;;34.35;16.95;;;;;;;;;;5091105;28;20048;-61
2021/12/27 17:40:21;;;;;;;38.72;18.27;;;;;;;;;;5091680;28;20767;-63
2021/12/27 17:42:49;;;;;;;38.20;17.63;;;;;;;;;;5089958;28;20538;-61
2021/12/27 17:45:15;;;;;;;36.33;18.73;;;;;;;;;;5091660;28;20114;-61
2021/12/27 17:47:43;;;;;;;43.85;19.63;;;2.70;99.90;;;;;;5091290;28;20048;-63
2021/12/27 17:50:09;;;;;;;36.67;18.50;;;;;;;;;;5089853;28;20488;-60
2021/12/27 17:52:35;;;;;;;;;;;2.70;99.90;;;;;;5090422;28;20048;-60
2021/12/27 17:55:01;;;;;;;37.53;18.08;;;;;;;;;;5091646;28;20312;-61
2021/12/27 17:57:27;;;;;;;40.03;19.23;;;;;;;;;;5090395;28;20059;-60
2021/12/27 17:59:54;;;;;;;41.30;18.45;;;;;;;;;;5089386;28;20054;-60
2021/12/27 18:02:20;;;;;;;34.90;18.30;;;;;;;;;;5089506;28;20486;-61
2021/12/27 18:04:46;;;;;;;36.25;18.00;;;;;;;;;;5090792;28;20384;-61
2021/12/27 18:07:12;;;;;;;34.25;16.80;;;;;;;;;;5089619;28;20056;-61
2021/12/27 18:09:40;;;;;;;33.05;17.85;;;;;;;;;;5090260;28;20480;-61
2021/12/27 18:12:07;;;;;;;32.22;16.48;;;3.20;99.90;;;;;;5089494;28;20366;-61
2021/12/27 18:14:33;;;;;;;32.72;17.02;;;;;;;;;;5090510;28;20040;-60
2021/12/27 18:17:00;;;;;;;36.97;18.40;;;3.00;99.90;;;;;;5090528;28;20059;-61
2021/12/27 18:19:26;;;;;;;38.17;18.90;;;;;;;;;;5090297;28;20451;-60
2021/12/27 18:21:52;;;;;;;37.80;19.35;;;;;;;;;;5089381;28;20542;-60
2021/12/27 18:24:19;;;;;;;34.50;17.75;;;;;;;;;;5090188;28;20056;-60
2021/12/27 18:26:46;;;;;;;38.35;17.52;;;;;;;;;;5089986;28;20056;-61
2021/12/27 18:29:12;;;;;;;34.47;18.00;;;;;;;;;;5090154;28;20376;-62
2021/12/27 18:31:40;;;;;;;;;;;3.10;99.90;;;;;;5091192;28;20078;-60
2021/12/27 18:34:07;;;;;;;36.35;16.92;;;3.20;99.90;;;;;;5088825;28;19965;-60
2021/12/27 18:36:34;;;;;;;32.75;17.42;;;;;;;;;;5089003;28;20136;-61
2021/12/27 18:39:00;;;;;;;34.28;17.63;;;;;;;;;;5088254;28;20086;-61
2021/12/27 18:41:26;;;;;;;;;;;3.20;99.90;;;;;;5088604;28;20053;-61
2021/12/27 18:43:55;;;;;;;31.70;16.50;;;;;;;;;;5089063;28;19997;-62
2021/12/27 18:46:22;;;;;;;30.63;15.85;;;3.20;99.90;;;;;;5089939;28;20488;-60
2021/12/27 18:48:49;;;;;;;36.72;16.63;;;;;;;;;;5088732;28;20056;-61
2021/12/27 18:51:15;;;;;;;33.25;17.52;;;;;;;;;;5079090;28;20040;-61
2021/12/27 18:53:41;;;;;;;35.58;17.30;;;;;;;;;;5075579;28;20186;-61
2021/12/27 18:56:12;;;;;;;36.95;18.13;;;;;;;;;;5075660;28;20041;-61
2021/12/27 18:58:40;;;;;;;33.15;17.63;;;3.30;99.90;;;;;;5076495;28;20057;-61
2021/12/27 19:01:06;;;;;;;35.25;17.98;;;;;;;;;;5076720;28;20053;-62
2021/12/27 19:03:33;;;;;;;37.20;18.83;;;;;;;;;;5075658;28;20051;-60
2021/12/27 19:05:59;;;;;;;33.08;18.55;;;;;;;;;;5076016;28;20127;-60
2021/12/27 19:08:25;;;;;;;32.30;17.13;;;3.10;99.90;;;;;;5076036;28;20400;-61
2021/12/27 19:10:51;;;;;;;35.15;18.35;;;;;;;;;;5076036;28;20131;-61
2021/12/27 19:13:17;;;;;;;34.95;17.67;;;;;;;;;;5075018;28;20045;-60
2021/12/27 19:15:44;;;;;;;32.28;17.02;;;;;;;;;;5076700;28;20459;-60
2021/12/27 19:18:10;;;;;;;30.30;17.63;;;;;;;;;;5075778;28;20084;-60
2021/12/27 19:20:37;;;;;;;33.17;18.70;;;3.50;99.90;;;;;;5075685;28;20444;-61
2021/12/27 19:23:03;;;;;;;32.42;16.60;;;;;;;;;;5075759;28;20083;-61
2021/12/27 19:25:30;;;;;;;31.02;17.15;;;;;;;;;;5075811;28;20084;-60
2021/12/27 19:27:56;;;;;;;34.10;18.70;;;;;;;;;;5075694;28;20049;-60
2021/12/27 19:30:22;;;;;;;31.38;16.75;;;;;;;;;;5075577;28;20087;-61
2021/12/27 19:32:49;;;;;;;32.42;16.67;;;;;;;;;;5075900;28;20060;-60
2021/12/27 19:35:20;;;;;;;33.22;17.90;;;;;;;;;;5073893;28;20044;-60
2021/12/27 19:37:47;;;;;;;31.73;16.90;;;;;;;;;;5075469;28;20056;-61
2021/12/27 19:40:13;;;;;;;31.65;16.50;;;;;;;;;;5076157;28;20098;-61
2021/12/27 19:42:38;;;;;;;31.33;16.40;;;2.90;99.90;;;;;;5075454;28;20045;-61
2021/12/27 19:45:05;;;;;;;30.35;17.08;;;2.90;99.90;;;;;;5075331;28;20040;-61
2021/12/27 19:47:31;;;;;;;32.08;16.83;;;;;;;;;;5075057;28;20501;-61
2021/12/27 19:49:57;;;;;;;28.50;16.17;;;;;;;;;;5075824;28;20044;-61
2021/12/27 19:52:23;;;;;;;29.52;16.27;;;;;;;;;;5075209;28;20546;-61
2021/12/27 19:54:49;;;;;;;33.78;17.15;;;;;;;;;;5075233;28;20044;-61
2021/12/27 19:57:15;;;;;;;28.73;16.35;;;;;;;;;;5075151;28;20131;-61
2021/12/27 19:59:41;;;;;;;30.50;15.38;;;;;;;;;;5073832;28;20051;-60
2021/12/27 20:02:07;;;;;;;30.02;16.35;;;;;;;;;;5073076;28;20053;-61
